Barnard Township, Maine
Current Conditions -  °F | °C
As of 1:34 AM on Wednesday 28 Jan 2015 (Local Time) from KMLT Reporting Station
Light Snow Light Snow  
Wind Chill: -3°   Ceiling: 1200
Heat Index: 12°   Visibility: 0.75mi
Dew Point:   Wind: 14mph
Humidity: 80%   Direction: 350°N
Pressure: 29.69"   Gusts: 26mph
Location:  45.4731°N, 69.1129°W
Report Text: KMLT 280634Z AUTO 35012G23KT 3/4SM -SN VV012 M11/M14 A2969 RMK AO2 P0000 T11111139
Loading
Personal Weather Stations






























Interactive Weather Map New forecast layout! Learn more

10-Day Weather Forecast

Advertisements
Track Severe Weather on mobile